Thursday, August 16, 2018, 5:55 AM GMT
Back to Local

CWAF, Ile Rouge Meteorological Aeronautical Presentation System

Location: , , Canada Lat: 48.083
Local Time: 5:55 AM GMT ( 5:55 GMT) Lon: -69.55
Time Zone: GMT Elev: 16 ft

Show me the last for .
Show Coded

Time T Td Feel RH Dir Speed Gust Alt SLP Vis Weather Sky Remarks
2018-08-16 05:00 54 - - 0 41 - - - 0 None
2018-08-16 04:00 52 - - 0 12 - - - 0 None
2018-08-16 03:00 51 - - 0 10 - - - 0 None
2018-08-16 02:00 51 - - 0 7 - - - 0 None
2018-08-16 01:00 52 - - 0 10 - - - 0 None
2018-08-16 00:00 53 - - 0 15 - - - 0 None
2018-08-15 23:00 51 - - 0 13 - - - 0 None
2018-08-15 22:00 55 - - 0 18 - - - 0 None
2018-08-15 21:00 55 - - 0 22 - - - 0 None
2018-08-15 20:00 59 - - 0 23 - - - 0 None
2018-08-15 19:00 59 - - 0 22 - - - 0 None
2018-08-15 18:00 59 - - 0 29 - - - 0 None
2018-08-15 17:00 63 - - 0 18 - - - 0 None
2018-08-15 16:00 56 - - 0 16 - - - 0 None
2018-08-15 15:00 54 - - 0 9 - - - 0 None
2018-08-15 14:00 63 - - 0 5 - - - 0 None
2018-08-15 13:00 55 - - 0 39 - - - 0 None
2018-08-15 12:00 50 - 41 0 33 - - - 0 None
2018-08-15 11:00 51 - - 0 32 - - - 0 None
2018-08-15 10:00 54 - - 0 35 - - - 0 None
2018-08-15 09:00 54 - - 0 28 - - - 0 None
2018-08-15 08:00 51 - - 0 18 - - - 0 None
2018-08-15 07:00 55 - - 0 10 - - - 0 None
2018-08-15 06:00 54 - - 0 39 - - - 0 None

Support USWX by starting your Amazon purchase here.